Notrees, Texas
Current Conditions -  °F | °C
As of 7:53 PM on Saturday 22 Nov 2014 (Local Time) from KODO Reporting Station
Clear Clear  
Wind Chill: 58°   Ceiling: Unl
Heat Index: 58°   Visibility: 10mi
Dew Point: 36°   Wind: 5mph
Humidity: 44%   Direction: 290°WNW
Pressure: 29.8"   Gusts: NA
Location:  31.92°N, 102.76°W
Report Text: KODO 230153Z AUTO 29004KT 10SM CLR 14/02 A2980 RMK AO2 SLP066 T01440022
Loading
Personal Weather Stations






























Interactive Weather Map New forecast layout! Learn more

10-Day Weather Forecast

Advertisements
Track Severe Weather on mobile